Time;durP1;ratioP1;P1;durP2;ratioP2;P2;SDS_P1;SDS_P2;PMS_P1;PMS_P2;Temp;Humidity;BMP_temperature;BMP_pressure;BME280_temperature;BME280_humidity;BME280_pressure;Samples;Min_cycle;Max_cycle;Signal;HPM_P1;HPM_P2
2022/07/15 00:00:27;;;;;;;1.55;0.60;;;;;;;;;;10423777;28;20236;-75
2022/07/15 00:05:28;;;;;;;4.90;0.65;;;;;;;;;;10403917;28;20192;-74
2022/07/15 00:10:29;;;;;;;1.95;0.68;;;;;;;;;;10410841;28;20255;-73
2022/07/15 00:15:31;;;;;;;2.83;0.90;;;;;;;;;;10418771;28;20233;-73
2022/07/15 00:20:35;;;;;;;1.65;0.60;;;;;;;;;;10423404;28;20199;-74
2022/07/15 00:25:36;;;;;;;1.52;0.57;;;;;;;;;;10431619;28;20196;-75
2022/07/15 00:30:38;;;;;;;1.05;0.80;;;;;;;;;;10423494;28;20264;-74
2022/07/15 00:35:40;;;;;;;2.00;0.75;;;;;;;;;;10422259;28;20292;-75
2022/07/15 00:40:42;;;;;;;1.63;0.90;;;;;;;;;;10402045;28;20180;-75
2022/07/15 00:45:44;;;;;;;3.25;0.88;;;;;;;;;;10425614;28;20183;-75
2022/07/15 00:50:45;;;;;;;0.80;0.80;;;;;;;;;;10425719;28;20276;-75
2022/07/15 00:55:46;;;;;;;2.25;0.90;;;;;;;;;;10390864;28;20214;-75
2022/07/15 01:00:48;;;;;;;1.33;0.65;;;;;;;;;;10406851;28;20242;-75
2022/07/15 01:05:49;;;;;;;3.28;0.70;;;;;;;;;;10427696;28;20202;-74
2022/07/15 01:10:51;;;;;;;2.40;1.00;;;;;;;;;;10405595;28;20234;-76
2022/07/15 01:15:53;;;;;;;3.42;1.02;;;;;;;;;;10424420;28;20211;-75
2022/07/15 01:20:54;;;;;;;2.05;0.90;;;;;;;;;;10423100;28;20207;-74
2022/07/15 01:25:56;;;;;;;3.25;0.90;;;;;;;;;;10409621;28;20246;-74
2022/07/15 01:30:57;;;;;;;2.15;0.98;;;;;;;;;;10418616;28;20684;-73
2022/07/15 01:36:01;;;;;;;2.80;1.02;;;;;;;;;;10425970;28;20832;-74
2022/07/15 01:41:04;;;;;;;2.97;1.00;;;;;;;;;;10425380;28;20938;-74
2022/07/15 01:46:05;;;;;;;2.72;1.08;;;;;;;;;;10420980;28;20213;-74
2022/07/15 01:51:10;;;;;;;1.90;0.95;;;;;;;;;;10418284;28;20218;-74
2022/07/15 01:56:12;;;;;;;7.10;0.88;;;;;;;;;;10386756;28;20214;-74
2022/07/15 02:01:13;;;;;;;2.50;0.88;;;;;;;;;;10421977;28;20246;-71
2022/07/15 02:06:14;;;;;;;3.30;1.13;;;;;;;;;;10413961;28;20187;-74
2022/07/15 02:11:15;;;;;;;9.55;1.27;;;;;;;;;;10415918;28;20227;-74
2022/07/15 02:16:20;;;;;;;4.22;0.90;;;;;;;;;;10418779;28;20211;-73
2022/07/15 02:21:21;;;;;;;2.17;1.00;;;;;;;;;;10409786;28;20200;-74
2022/07/15 02:26:22;;;;;;;2.67;1.00;;;;;;;;;;10407346;28;20195;-74
2022/07/15 02:31:23;;;;;;;3.50;0.90;;;;;;;;;;10420266;28;20313;-74
2022/07/15 02:36:25;;;;;;;4.68;1.02;;;;;;;;;;10420565;28;20210;-74
2022/07/15 02:41:26;;;;;;;3.60;1.00;;;;;;;;;;10419718;28;20729;-74
2022/07/15 02:46:28;;;;;;;5.70;0.93;;;;;;;;;;10402700;28;20274;-74
2022/07/15 02:51:29;;;;;;;3.47;0.70;;;;;;;;;;10419800;28;20211;-75
2022/07/15 02:56:30;;;;;;;4.68;0.70;;;;;;;;;;10415853;28;20824;-74
2022/07/15 03:01:31;;;;;;;6.47;1.00;;;;;;;;;;10402205;28;20764;-74
2022/07/15 03:06:35;;;;;;;4.50;0.70;;;;;;;;;;10422109;28;20222;-73
2022/07/15 03:11:36;;;;;;;6.18;0.90;;;;;;;;;;10414966;28;20219;-74
2022/07/15 03:16:39;;;;;;;5.35;0.70;;;;;;;;;;10416081;28;20218;-74
2022/07/15 03:21:40;;;;;;;5.60;0.90;;;;;;;;;;10400500;28;20202;-74
2022/07/15 03:26:42;;;;;;;3.40;0.80;;;;;;;;;;10416015;28;20192;-73
2022/07/15 03:31:43;;;;;;;4.03;0.98;;;;;;;;;;10418255;28;20636;-74
2022/07/15 03:36:44;;;;;;;3.67;0.80;;;;;;;;;;10389017;28;20211;-70
2022/07/15 03:41:46;;;;;;;4.88;0.82;;;;;;;;;;10396698;28;20679;-72
2022/07/15 03:46:48;;;;;;;7.65;1.27;;;;;;;;;;10398415;28;20250;-75
2022/07/15 03:51:50;;;;;;;3.40;1.08;;;;;;;;;;10382782;28;20551;-74
2022/07/15 03:56:51;;;;;;;4.30;0.77;;;;;;;;;;10413240;28;20254;-74
2022/07/15 04:01:53;;;;;;;4.57;1.00;;;;;;;;;;10415293;28;20577;-74
2022/07/15 04:06:54;;;;;;;5.20;0.85;;;;;;;;;;10415406;28;20206;-74
2022/07/15 04:11:58;;;;;;;4.15;0.70;;;;;;;;;;10398711;28;20222;-74
2022/07/15 04:17:00;;;;;;;3.13;1.00;;;;;;;;;;10399337;28;20227;-74
2022/07/15 04:22:07;;;;;;;4.72;1.08;;;;;;;;;;10409558;28;20448;-73
2022/07/15 04:27:22;;;;;;;5.60;1.10;;;;;;;;;;10416216;28;20224;-74
2022/07/15 04:32:23;;;;;;;4.65;1.23;;;;;;;;;;10401242;28;20214;-72
2022/07/15 04:37:26;;;;;;;3.60;1.00;;;;;;;;;;10412432;28;20218;-73
2022/07/15 04:42:30;;;;;;;7.57;0.90;;;;;;;;;;10417250;28;20275;-74
2022/07/15 04:47:31;;;;;;;7.95;1.15;;;;;;;;;;10422743;28;20609;-73
2022/07/15 04:52:36;;;;;;;4.93;1.27;;;;;;;;;;10419953;28;20270;-72
2022/07/15 04:57:37;;;;;;;5.10;0.68;;;;;;;;;;10402644;28;20211;-73
2022/07/15 05:02:38;;;;;;;5.00;0.70;;;;;;;;;;10412481;28;20662;-72
2022/07/15 05:07:40;;;;;;;3.70;0.85;;;;;;;;;;10428008;28;20600;-73
2022/07/15 05:12:41;;;;;;;11.02;1.30;;;;;;;;;;10396128;28;20682;-73
2022/07/15 05:17:42;;;;;;;4.20;0.63;;;;;;;;;;10412920;28;20567;-74
2022/07/15 05:22:49;;;;;;;5.75;0.77;;;;;;;;;;10423829;28;20285;-73
2022/07/15 05:27:52;;;;;;;5.40;0.85;;;;;;;;;;10423634;28;20663;-75
2022/07/15 05:32:53;;;;;;;4.95;0.88;;;;;;;;;;10425389;28;20253;-72
2022/07/15 05:37:57;;;;;;;5.20;0.90;;;;;;;;;;10404552;28;20191;-74
2022/07/15 05:43:03;;;;;;;5.03;0.80;;;;;;;;;;10425098;28;20187;-75
2022/07/15 05:48:08;;;;;;;3.70;0.60;;;;;;;;;;10403235;28;20208;-74
2022/07/15 05:53:20;;;;;;;5.43;0.95;;;;;;;;;;10405386;28;20254;-75
2022/07/15 05:58:21;;;;;;;3.72;0.88;;;;;;;;;;10403881;28;20183;-75
2022/07/15 06:03:23;;;;;;;4.80;0.90;;;;;;;;;;10419409;28;20379;-74
2022/07/15 06:08:24;;;;;;;4.80;0.90;;;;;;;;;;10423265;28;20790;-73
2022/07/15 06:13:26;;;;;;;4.05;0.68;;;;;;;;;;10400017;28;20900;-73
2022/07/15 06:18:27;;;;;;;4.10;0.75;;;;;;;;;;10398240;28;20200;-73
2022/07/15 06:23:29;;;;;;;5.20;1.00;;;;;;;;;;10410222;28;20188;-75
2022/07/15 06:28:30;;;;;;;3.70;0.40;;;;;;;;;;10420054;28;20659;-75
2022/07/15 06:33:31;;;;;;;5.93;0.60;;;;;;;;;;10403750;28;20330;-71
2022/07/15 06:38:32;;;;;;;1.05;0.57;;;;;;;;;;10408322;28;20669;-72
2022/07/15 06:43:33;;;;;;;3.88;0.50;;;;;;;;;;10417884;28;20206;-74
2022/07/15 06:48:44;;;;;;;4.88;0.57;;;;;;;;;;10409452;28;20208;-71
2022/07/15 06:53:45;;;;;;;2.55;0.52;;;;;;;;;;10409240;28;20834;-72
2022/07/15 06:58:46;;;;;;;3.63;0.50;;;;;;;;;;10416615;28;20194;-73
2022/07/15 07:03:47;;;;;;;1.75;0.50;;;;;;;;;;10416328;28;20217;-71
2022/07/15 07:08:49;;;;;;;2.17;0.40;;;;;;;;;;10410877;28;20312;-72
2022/07/15 07:13:50;;;;;;;3.80;0.50;;;;;;;;;;10413875;28;20625;-72
2022/07/15 07:18:51;;;;;;;2.88;0.43;;;;;;;;;;10419679;28;20199;-74
2022/07/15 07:23:52;;;;;;;0.68;0.50;;;;;;;;;;10412894;28;20218;-74
2022/07/15 07:28:53;;;;;;;4.18;0.70;;;;;;;;;;10427749;28;20191;-73
2022/07/15 07:33:56;;;;;;;0.82;0.50;;;;;;;;;;10415258;28;20269;-73
2022/07/15 07:38:57;;;;;;;3.00;0.40;;;;;;;;;;10403788;28;20199;-73
2022/07/15 07:43:58;;;;;;;2.97;0.40;;;;;;;;;;10423777;28;20234;-73
2022/07/15 07:48:59;;;;;;;3.90;0.80;;;;;;;;;;10420560;28;20323;-72
2022/07/15 07:54:00;;;;;;;3.10;0.50;;;;;;;;;;10408552;28;20222;-70
2022/07/15 07:59:01;;;;;;;4.10;0.40;;;;;;;;;;10418489;28;20213;-73
2022/07/15 08:04:02;;;;;;;1.40;0.50;;;;;;;;;;10411654;28;20229;-72
2022/07/15 08:09:04;;;;;;;1.88;0.40;;;;;;;;;;10415272;28;20686;-73
2022/07/15 08:14:05;;;;;;;3.33;0.50;;;;;;;;;;10423040;28;20611;-73
2022/07/15 08:19:06;;;;;;;4.72;0.35;;;;;;;;;;10412675;28;20262;-72
2022/07/15 08:24:07;;;;;;;1.10;0.20;;;;;;;;;;10421550;28;20188;-72
2022/07/15 08:29:08;;;;;;;3.20;0.30;;;;;;;;;;10420553;28;20203;-72
2022/07/15 08:34:09;;;;;;;1.13;0.60;;;;;;;;;;10410507;28;20230;-73
2022/07/15 08:39:11;;;;;;;1.67;0.63;;;;;;;;;;10425459;28;20728;-74
2022/07/15 08:44:12;;;;;;;1.17;0.38;;;;;;;;;;10420686;28;20692;-73
2022/07/15 08:49:19;;;;;;;2.47;0.40;;;;;;;;;;10422051;28;20222;-71
2022/07/15 08:54:20;;;;;;;5.28;0.50;;;;;;;;;;10428809;28;20225;-74
2022/07/15 08:59:21;;;;;;;1.73;0.30;;;;;;;;;;10421690;28;20183;-75
2022/07/15 09:04:22;;;;;;;3.25;0.50;;;;;;;;;;10425334;28;20241;-72
2022/07/15 09:09:31;;;;;;;1.15;0.43;;;;;;;;;;10427167;28;20223;-72
2022/07/15 09:14:33;;;;;;;3.13;0.47;;;;;;;;;;10421063;28;20246;-74
2022/07/15 09:19:54;;;;;;;4.15;0.50;;;;;;;;;;10423378;28;20211;-71
2022/07/15 09:25:01;;;;;;;0.73;0.30;;;;;;;;;;10418061;28;20203;-72
2022/07/15 09:40:57;;;;;;;0.52;0.20;;;;;;;;;;10417490;28;20197;-72
2022/07/15 09:46:01;;;;;;;2.50;0.20;;;;;;;;;;10426495;28;20199;-72
2022/07/15 09:51:02;;;;;;;0.93;0.30;;;;;;;;;;10418245;28;20625;-71
2022/07/15 09:56:07;;;;;;;1.35;0.40;;;;;;;;;;10420697;28;20861;-73
2022/07/15 10:01:09;;;;;;;0.82;0.40;;;;;;;;;;10420219;28;20224;-72
2022/07/15 10:06:11;;;;;;;0.98;0.30;;;;;;;;;;10418374;28;20274;-72
2022/07/15 10:11:12;;;;;;;5.55;0.35;;;;;;;;;;10418652;28;20231;-72
2022/07/15 10:16:32;;;;;;;4.63;0.65;;;;;;;;;;10424188;28;20306;-71
2022/07/15 10:21:39;;;;;;;2.33;0.20;;;;;;;;;;10420308;28;20207;-72
2022/07/15 10:26:40;;;;;;;1.17;0.28;;;;;;;;;;10416536;28;20191;-72
2022/07/15 10:31:41;;;;;;;0.95;0.30;;;;;;;;;;10405411;28;20230;-72
2022/07/15 10:36:49;;;;;;;2.70;0.40;;;;;;;;;;10412913;28;20306;-71
2022/07/15 10:41:56;;;;;;;0.57;0.40;;;;;;;;;;10400319;28;20206;-73
2022/07/15 10:47:12;;;;;;;0.95;0.57;;;;;;;;;;10401080;28;20195;-72
2022/07/15 10:52:16;;;;;;;3.42;0.30;;;;;;;;;;10415490;28;20698;-73
2022/07/15 10:57:19;;;;;;;0.70;0.30;;;;;;;;;;10418229;28;20696;-74
2022/07/15 11:02:21;;;;;;;2.42;0.30;;;;;;;;;;10418936;28;20637;-69
2022/07/15 11:07:24;;;;;;;2.97;0.40;;;;;;;;;;10413780;28;20199;-73
2022/07/15 11:12:28;;;;;;;2.17;0.30;;;;;;;;;;10421639;28;20291;-71
2022/07/15 11:17:29;;;;;;;2.33;0.50;;;;;;;;;;10419711;28;20219;-72
2022/07/15 11:22:30;;;;;;;1.85;0.32;;;;;;;;;;10421670;28;20203;-74
2022/07/15 11:27:31;;;;;;;0.40;0.40;;;;;;;;;;10420389;28;20217;-72
2022/07/15 11:32:33;;;;;;;0.20;0.20;;;;;;;;;;10419190;28;20787;-73
2022/07/15 11:37:36;;;;;;;0.73;0.20;;;;;;;;;;10418272;28;20214;-73
2022/07/15 11:47:57;;;;;;;0.25;0.25;;;;;;;;;;10417900;28;20211;-72
2022/07/15 11:52:59;;;;;;;0.47;0.40;;;;;;;;;;10404395;28;20197;-73
2022/07/15 11:58:00;;;;;;;0.30;0.20;;;;;;;;;;10419962;28;20186;-71
2022/07/15 12:03:07;;;;;;;0.40;0.20;;;;;;;;;;10422204;28;20217;-73
2022/07/15 12:08:08;;;;;;;0.20;0.20;;;;;;;;;;10422380;28;20325;-71
2022/07/15 12:13:10;;;;;;;0.43;0.25;;;;;;;;;;10398510;28;20225;-72
2022/07/15 12:18:11;;;;;;;1.20;0.20;;;;;;;;;;10410450;28;20298;-73
2022/07/15 12:23:12;;;;;;;1.17;0.40;;;;;;;;;;10419311;28;20179;-72
2022/07/15 12:28:29;;;;;;;1.95;0.30;;;;;;;;;;10413172;28;20188;-73
2022/07/15 12:33:35;;;;;;;2.60;0.20;;;;;;;;;;10398919;28;20257;-73
2022/07/15 12:38:36;;;;;;;5.05;0.30;;;;;;;;;;10412314;28;20266;-74
2022/07/15 12:43:47;;;;;;;0.50;0.30;;;;;;;;;;10416853;28;20223;-71
2022/07/15 12:48:49;;;;;;;1.80;0.20;;;;;;;;;;10420780;28;20326;-74
2022/07/15 12:53:50;;;;;;;1.65;0.30;;;;;;;;;;10414810;28;20207;-74
2022/07/15 12:58:51;;;;;;;1.70;0.20;;;;;;;;;;10415215;28;20720;-73
2022/07/15 13:03:52;;;;;;;1.65;0.28;;;;;;;;;;10414807;28;20223;-72
2022/07/15 13:08:53;;;;;;;0.80;0.30;;;;;;;;;;10417350;28;20223;-73
2022/07/15 13:13:54;;;;;;;0.80;0.30;;;;;;;;;;10411671;28;20525;-74
2022/07/15 13:18:56;;;;;;;3.00;0.32;;;;;;;;;;10408879;28;20290;-73
2022/07/15 13:23:57;;;;;;;1.05;0.35;;;;;;;;;;10418724;28;20297;-73
2022/07/15 13:28:58;;;;;;;0.63;0.30;;;;;;;;;;10424431;28;20686;-73
2022/07/15 13:33:59;;;;;;;0.93;0.40;;;;;;;;;;10429756;28;20235;-73
2022/07/15 13:39:00;;;;;;;0.30;0.28;;;;;;;;;;10415819;28;20183;-73
2022/07/15 13:44:01;;;;;;;1.90;0.30;;;;;;;;;;10426747;28;20206;-74
2022/07/15 13:49:02;;;;;;;1.63;0.30;;;;;;;;;;10419482;28;20330;-72
2022/07/15 13:54:03;;;;;;;0.70;0.35;;;;;;;;;;10418420;28;20699;-70
2022/07/15 13:59:04;;;;;;;2.25;0.20;;;;;;;;;;10425408;28;20191;-73
2022/07/15 14:04:05;;;;;;;0.28;0.20;;;;;;;;;;10419722;28;20250;-73
2022/07/15 14:09:06;;;;;;;0.95;0.28;;;;;;;;;;10415424;28;20219;-72
2022/07/15 14:14:08;;;;;;;0.77;0.30;;;;;;;;;;10412941;28;20686;-73
2022/07/15 14:19:09;;;;;;;1.90;0.30;;;;;;;;;;10421403;28;20756;-72
2022/07/15 14:24:10;;;;;;;0.82;0.10;;;;;;;;;;10418273;28;20718;-73
2022/07/15 14:29:11;;;;;;;0.40;0.20;;;;;;;;;;10422880;28;20187;-73
2022/07/15 14:34:12;;;;;;;1.02;0.20;;;;;;;;;;10413627;28;20289;-70
2022/07/15 14:39:13;;;;;;;0.47;0.20;;;;;;;;;;10427035;28;20658;-74
2022/07/15 14:44:14;;;;;;;3.20;0.20;;;;;;;;;;10425971;28;20295;-74
2022/07/15 14:49:15;;;;;;;0.63;0.30;;;;;;;;;;10423873;28;20302;-74
2022/07/15 14:54:16;;;;;;;1.48;0.30;;;;;;;;;;10420193;28;20838;-73
2022/07/15 14:59:17;;;;;;;1.27;0.20;;;;;;;;;;10422639;28;20223;-74
2022/07/15 15:04:18;;;;;;;1.55;0.30;;;;;;;;;;10421416;28;20230;-73
2022/07/15 15:09:22;;;;;;;0.38;0.30;;;;;;;;;;10421532;28;20229;-73
2022/07/15 15:14:24;;;;;;;0.22;0.20;;;;;;;;;;10420576;28;20703;-72
2022/07/15 15:19:25;;;;;;;0.40;0.30;;;;;;;;;;10411069;28;20203;-73
2022/07/15 15:24:26;;;;;;;0.82;0.13;;;;;;;;;;10416210;28;20271;-74
2022/07/15 15:29:27;;;;;;;1.52;0.30;;;;;;;;;;10409591;28;20562;-73
2022/07/15 15:34:29;;;;;;;0.55;0.25;;;;;;;;;;10414995;28;20708;-75
2022/07/15 15:39:30;;;;;;;0.50;0.35;;;;;;;;;;10421512;28;20187;-73
2022/07/15 15:44:31;;;;;;;1.27;0.30;;;;;;;;;;10411460;28;20195;-74
2022/07/15 15:49:32;;;;;;;1.50;0.25;;;;;;;;;;10400970;28;20709;-74
2022/07/15 15:54:34;;;;;;;2.22;0.20;;;;;;;;;;10416620;28;20213;-71
2022/07/15 15:59:35;;;;;;;1.25;0.35;;;;;;;;;;10416966;28;20575;-74
2022/07/15 16:04:36;;;;;;;0.80;0.30;;;;;;;;;;10416523;28;20264;-72
2022/07/15 16:09:37;;;;;;;2.95;0.15;;;;;;;;;;10414890;28;20231;-73
2022/07/15 16:14:38;;;;;;;1.73;0.25;;;;;;;;;;10413364;28;20246;-74
2022/07/15 16:19:39;;;;;;;0.60;0.30;;;;;;;;;;10418889;28;20218;-74
2022/07/15 16:24:40;;;;;;;0.25;0.20;;;;;;;;;;10419824;28;20600;-74
2022/07/15 16:29:41;;;;;;;2.75;0.30;;;;;;;;;;10419590;28;20192;-74
2022/07/15 16:34:42;;;;;;;0.52;0.30;;;;;;;;;;10420235;28;20226;-74
2022/07/15 16:39:43;;;;;;;0.73;0.20;;;;;;;;;;10415877;28;20228;-73
2022/07/15 16:44:44;;;;;;;0.88;0.50;;;;;;;;;;10413799;28;20330;-74
2022/07/15 16:49:46;;;;;;;1.42;0.30;;;;;;;;;;10413271;28;20207;-73
2022/07/15 16:54:47;;;;;;;0.55;0.25;;;;;;;;;;10416127;28;20220;-72
2022/07/15 16:59:48;;;;;;;1.95;0.30;;;;;;;;;;10421625;28;20202;-73
2022/07/15 17:04:49;;;;;;;0.30;0.30;;;;;;;;;;10420277;28;20223;-74
2022/07/15 17:09:50;;;;;;;2.20;0.50;;;;;;;;;;10419791;28;20261;-72
2022/07/15 17:14:51;;;;;;;0.47;0.30;;;;;;;;;;10415631;28;20204;-73
2022/07/15 17:19:52;;;;;;;1.00;0.60;;;;;;;;;;10417683;28;20234;-74
2022/07/15 17:24:53;;;;;;;0.30;0.28;;;;;;;;;;10420756;28;20210;-75
2022/07/15 17:29:54;;;;;;;2.25;0.40;;;;;;;;;;10425222;28;20271;-74
2022/07/15 17:34:55;;;;;;;0.93;0.30;;;;;;;;;;10423938;28;20662;-72
2022/07/15 17:39:56;;;;;;;2.63;0.30;;;;;;;;;;10422692;28;20186;-72
2022/07/15 17:44:57;;;;;;;0.40;0.22;;;;;;;;;;10427224;28;20272;-74
2022/07/15 17:49:58;;;;;;;10.95;0.20;;;;;;;;;;10420256;28;20262;-74
2022/07/15 17:55:00;;;;;;;0.60;0.20;;;;;;;;;;10431230;28;20210;-73
2022/07/15 18:00:01;;;;;;;3.63;0.28;;;;;;;;;;10405953;28;20183;-73
2022/07/15 18:05:02;;;;;;;0.20;0.10;;;;;;;;;;10419634;28;20221;-73
2022/07/15 18:10:04;;;;;;;0.65;0.10;;;;;;;;;;10423204;28;20231;-73
2022/07/15 18:15:06;;;;;;;0.10;0.10;;;;;;;;;;10423298;28;20207;-74
2022/07/15 18:20:07;;;;;;;1.58;0.10;;;;;;;;;;10426591;28;20214;-73
2022/07/15 18:25:09;;;;;;;0.20;0.10;;;;;;;;;;10418972;28;20203;-72
2022/07/15 18:30:10;;;;;;;0.17;0.17;;;;;;;;;;10422039;28;20277;-72
2022/07/15 18:35:12;;;;;;;0.90;0.10;;;;;;;;;;10417976;28;20285;-72
2022/07/15 18:40:13;;;;;;;0.20;0.20;;;;;;;;;;10424319;28;20199;-73
2022/07/15 18:45:15;;;;;;;2.70;0.20;;;;;;;;;;10417130;28;20670;-72
2022/07/15 18:50:16;;;;;;;0.38;0.35;;;;;;;;;;10423456;28;20211;-73
2022/07/15 18:55:17;;;;;;;0.30;0.20;;;;;;;;;;10413466;28;20223;-73
2022/07/15 19:00:18;;;;;;;3.13;0.20;;;;;;;;;;10420761;28;20192;-73
2022/07/15 19:05:19;;;;;;;1.35;0.28;;;;;;;;;;10397876;28;20196;-74
2022/07/15 19:10:20;;;;;;;1.85;0.20;;;;;;;;;;10418341;28;20338;-72
2022/07/15 19:15:22;;;;;;;0.45;0.10;;;;;;;;;;10418912;28;20232;-73
2022/07/15 19:20:23;;;;;;;1.10;0.10;;;;;;;;;;10423531;28;20321;-73
2022/07/15 19:25:24;;;;;;;1.55;0.10;;;;;;;;;;10414042;28;20199;-73
2022/07/15 19:30:25;;;;;;;0.63;0.10;;;;;;;;;;10412172;28;20191;-74
2022/07/15 19:35:26;;;;;;;1.75;0.10;;;;;;;;;;10421218;28;20276;-73
2022/07/15 19:40:27;;;;;;;0.45;0.20;;;;;;;;;;10416502;28;20236;-74
2022/07/15 19:45:29;;;;;;;0.20;0.20;;;;;;;;;;10416395;28;20203;-74
2022/07/15 19:50:30;;;;;;;2.47;0.10;;;;;;;;;;10422837;28;20210;-73
2022/07/15 19:55:31;;;;;;;0.40;0.20;;;;;;;;;;10401524;28;20214;-74
2022/07/15 20:00:33;;;;;;;0.10;0.10;;;;;;;;;;10414239;28;20253;-74
2022/07/15 20:05:35;;;;;;;0.20;0.20;;;;;;;;;;10399063;28;20578;-72
2022/07/15 20:10:41;;;;;;;0.52;0.28;;;;;;;;;;10412907;28;20228;-73
2022/07/15 20:15:42;;;;;;;1.60;0.20;;;;;;;;;;10415829;28;20210;-73
2022/07/15 20:20:43;;;;;;;2.65;0.20;;;;;;;;;;10417535;28;20213;-74
2022/07/15 20:25:46;;;;;;;1.00;0.20;;;;;;;;;;10422573;28;20656;-74
2022/07/15 20:30:47;;;;;;;0.77;0.15;;;;;;;;;;10416869;28;20563;-74
2022/07/15 20:35:48;;;;;;;0.38;0.20;;;;;;;;;;10416366;28;20238;-74
2022/07/15 20:40:49;;;;;;;0.47;0.20;;;;;;;;;;10426430;28;20689;-74
2022/07/15 20:45:50;;;;;;;0.28;0.20;;;;;;;;;;10431392;28;20187;-74
2022/07/15 20:50:51;;;;;;;0.20;0.20;;;;;;;;;;10425913;28;20662;-75
2022/07/15 20:55:52;;;;;;;0.73;0.20;;;;;;;;;;10424325;28;20215;-74
2022/07/15 21:00:53;;;;;;;0.25;0.25;;;;;;;;;;10426561;28;20222;-74
2022/07/15 21:05:55;;;;;;;2.05;0.30;;;;;;;;;;10414711;28;20244;-74
2022/07/15 21:10:56;;;;;;;0.88;0.20;;;;;;;;;;10425942;28;20729;-74
2022/07/15 21:15:57;;;;;;;0.17;0.17;;;;;;;;;;10422605;28;20226;-74
2022/07/15 21:20:58;;;;;;;0.57;0.28;;;;;;;;;;10426185;28;20264;-74
2022/07/15 21:31:36;;;;;;;0.47;0.20;;;;;;;;;;10374329;28;20207;-74
2022/07/15 21:36:37;;;;;;;1.33;0.17;;;;;;;;;;10422499;28;20585;-74
2022/07/15 21:41:38;;;;;;;1.00;0.20;;;;;;;;;;10426514;28;20201;-73
2022/07/15 21:46:39;;;;;;;0.60;0.20;;;;;;;;;;10418740;28;20198;-73
2022/07/15 21:51:40;;;;;;;0.30;0.30;;;;;;;;;;10427160;28;20203;-74
2022/07/15 21:56:42;;;;;;;0.20;0.20;;;;;;;;;;10428742;28;20215;-75
2022/07/15 22:01:43;;;;;;;0.40;0.20;;;;;;;;;;10423562;28;20562;-74
2022/07/15 22:06:44;;;;;;;1.05;0.20;;;;;;;;;;10420115;28;20610;-74
2022/07/15 22:11:45;;;;;;;0.88;0.20;;;;;;;;;;10417885;28;20227;-74
2022/07/15 22:16:48;;;;;;;1.10;0.20;;;;;;;;;;10396831;28;21113;-75
2022/07/15 22:21:49;;;;;;;0.52;0.30;;;;;;;;;;10421887;28;20730;-74
2022/07/15 22:26:50;;;;;;;0.35;0.20;;;;;;;;;;10420627;28;20744;-75
2022/07/15 22:37:11;;;;;;;0.20;0.20;;;;;;;;;;10422250;28;20206;-74
2022/07/15 22:42:12;;;;;;;1.30;0.30;;;;;;;;;;10403902;28;20672;-74
2022/07/15 22:47:13;;;;;;;0.45;0.20;;;;;;;;;;10417929;28;20227;-73
2022/07/15 22:52:14;;;;;;;0.40;0.40;;;;;;;;;;10420369;28;20199;-74
2022/07/15 22:57:15;;;;;;;1.10;0.20;;;;;;;;;;10417511;28;20972;-73
2022/07/15 23:02:16;;;;;;;0.20;0.20;;;;;;;;;;10418022;28;20211;-73
2022/07/15 23:07:18;;;;;;;0.20;0.20;;;;;;;;;;10420229;28;20197;-73
2022/07/15 23:12:20;;;;;;;1.00;0.40;;;;;;;;;;10419401;28;20199;-73
2022/07/15 23:17:21;;;;;;;0.20;0.20;;;;;;;;;;10418765;28;20283;-74
2022/07/15 23:22:23;;;;;;;0.22;0.22;;;;;;;;;;10415492;28;20231;-73
2022/07/15 23:27:24;;;;;;;0.43;0.43;;;;;;;;;;10419149;28;20199;-74
2022/07/15 23:32:25;;;;;;;0.70;0.30;;;;;;;;;;10419575;28;20677;-74
2022/07/15 23:37:26;;;;;;;0.38;0.20;;;;;;;;;;10415843;28;20215;-74
2022/07/15 23:42:27;;;;;;;0.57;0.20;;;;;;;;;;10418674;28;20191;-74
2022/07/15 23:47:28;;;;;;;0.30;0.30;;;;;;;;;;10423082;28;20315;-74
2022/07/15 23:52:29;;;;;;;2.35;0.28;;;;;;;;;;10415216;28;20202;-74
2022/07/15 23:57:30;;;;;;;0.45;0.20;;;;;;;;;;10420036;28;20221;-73
